createdAt,value
2023-11-15T00:01:24.029Z,10.33
2023-11-15T00:03:52.083Z,10.23
2023-11-15T00:06:21.630Z,10.26
2023-11-15T00:08:51.032Z,10.24
2023-11-15T00:11:20.596Z,10.17
2023-11-15T00:13:51.902Z,10.26
2023-11-15T00:16:19.784Z,10.25
2023-11-15T00:18:47.584Z,10.27
2023-11-15T00:21:15.684Z,10.25
2023-11-15T00:23:43.533Z,10.22
2023-11-15T00:26:11.077Z,10.19
2023-11-15T00:28:40.592Z,10.24
2023-11-15T00:31:08.736Z,10.27
2023-11-15T00:33:38.383Z,10.28
2023-11-15T00:36:06.790Z,10.30
2023-11-15T00:38:35.752Z,10.29
2023-11-15T00:41:04.851Z,10.30
2023-11-15T00:43:32.630Z,10.28
2023-11-15T00:46:01.833Z,10.31
2023-11-15T00:48:29.993Z,10.37
2023-11-15T00:50:57.635Z,10.38
2023-11-15T00:53:25.820Z,10.40
2023-11-15T00:55:53.309Z,10.44
2023-11-15T00:58:20.955Z,10.41
2023-11-15T01:00:49.658Z,10.38
2023-11-15T01:03:27.039Z,10.36
2023-11-15T01:05:56.122Z,10.42
2023-11-15T01:08:24.697Z,10.37
2023-11-15T01:10:53.258Z,10.30
2023-11-15T01:13:20.967Z,10.28
2023-11-15T01:15:49.584Z,10.38
2023-11-15T01:18:19.656Z,10.38
2023-11-15T01:20:47.555Z,10.39
2023-11-15T01:23:16.299Z,10.37
2023-11-15T01:25:43.858Z,10.34
2023-11-15T01:28:11.389Z,10.29
2023-11-15T01:30:39.836Z,10.37
2023-11-15T01:33:07.442Z,10.39
2023-11-15T01:35:39.129Z,10.46
2023-11-15T01:38:07.148Z,10.42
2023-11-15T01:40:39.062Z,10.45
2023-11-15T01:43:07.560Z,10.44
2023-11-15T01:45:35.044Z,10.35
2023-11-15T01:48:02.632Z,10.27
2023-11-15T01:50:30.685Z,10.20
2023-11-15T01:53:01.412Z,10.27
2023-11-15T01:55:29.691Z,10.35
2023-11-15T01:57:58.442Z,10.30
2023-11-15T02:00:26.867Z,10.30
2023-11-15T02:02:54.873Z,10.36
2023-11-15T02:05:22.647Z,10.32
2023-11-15T02:07:50.276Z,10.31
2023-11-15T02:10:19.276Z,10.22
2023-11-15T02:12:47.784Z,10.10
2023-11-15T02:15:16.620Z,10.01
2023-11-15T02:17:44.865Z,10.03
2023-11-15T02:20:14.040Z,9.99
2023-11-15T02:22:48.014Z,10.02
2023-11-15T02:25:18.100Z,9.95
2023-11-15T02:27:46.211Z,9.98
2023-11-15T02:30:15.376Z,9.78
2023-11-15T02:32:44.889Z,9.95
2023-11-15T02:35:12.823Z,10.04
2023-11-15T02:37:43.111Z,10.08
2023-11-15T02:40:11.744Z,10.09
2023-11-15T02:42:41.044Z,10.17
2023-11-15T02:45:09.239Z,10.13
2023-11-15T02:47:36.797Z,10.20
2023-11-15T02:50:04.635Z,10.14
2023-11-15T02:52:32.988Z,10.10
2023-11-15T02:55:00.510Z,10.15
2023-11-15T02:57:28.005Z,10.17
2023-11-15T02:59:56.983Z,10.19
2023-11-15T03:02:24.738Z,10.22
2023-11-15T03:04:52.256Z,10.19
2023-11-15T03:07:19.742Z,10.17
2023-11-15T03:09:47.357Z,10.11
2023-11-15T03:12:14.899Z,10.13
2023-11-15T03:14:42.724Z,10.10
2023-11-15T03:17:17.922Z,10.18
2023-11-15T03:19:45.849Z,10.17
2023-11-15T03:22:14.610Z,10.09
2023-11-15T03:24:43.564Z,10.09
2023-11-15T03:27:11.091Z,10.16
2023-11-15T03:29:38.581Z,10.16
2023-11-15T03:32:06.520Z,10.19
2023-11-15T03:34:37.551Z,10.24
2023-11-15T03:37:05.681Z,10.28
2023-11-15T03:39:33.790Z,10.29
2023-11-15T03:42:01.311Z,10.30
2023-11-15T03:44:28.775Z,10.30
2023-11-15T03:46:56.342Z,10.27
2023-11-15T03:49:23.826Z,10.25
2023-11-15T03:51:52.701Z,10.27
2023-11-15T03:54:20.191Z,10.30
2023-11-15T03:56:47.740Z,10.28
2023-11-15T03:59:15.224Z,10.22
2023-11-15T04:01:51.996Z,10.16
2023-11-15T04:04:24.680Z,10.10
2023-11-15T04:06:54.256Z,10.06
2023-11-15T04:09:21.741Z,10.05
2023-11-15T04:11:49.655Z,10.03
2023-11-15T04:14:18.463Z,10.01
2023-11-15T04:16:46.107Z,10.07
2023-11-15T04:19:13.657Z,9.96
2023-11-15T04:21:41.570Z,9.94
2023-11-15T04:24:11.133Z,9.87
2023-11-15T04:26:39.436Z,9.76
2023-11-15T04:29:06.971Z,9.70
2023-11-15T04:31:36.483Z,9.72
2023-11-15T04:34:04.173Z,9.75
2023-11-15T04:36:35.919Z,9.72
2023-11-15T04:41:36.645Z,9.81
2023-11-15T04:44:05.577Z,9.75
2023-11-15T04:46:34.031Z,9.85
2023-11-15T04:49:02.679Z,9.83
2023-11-15T04:51:30.492Z,9.95
2023-11-15T04:53:59.183Z,10.02
2023-11-15T04:56:27.016Z,10.09
2023-11-15T04:58:55.894Z,10.11
2023-11-15T05:01:23.487Z,10.09
2023-11-15T05:03:51.397Z,10.11
2023-11-15T05:06:19.036Z,10.14
2023-11-15T05:08:46.808Z,10.18
2023-11-15T05:11:14.283Z,10.22
2023-11-15T05:13:41.986Z,10.26
2023-11-15T05:16:10.924Z,10.28
2023-11-15T05:18:39.175Z,10.29
2023-11-15T05:21:08.092Z,10.29
2023-11-15T05:23:35.870Z,10.30
2023-11-15T05:26:03.961Z,10.28
2023-11-15T05:28:33.944Z,10.27
2023-11-15T05:31:02.290Z,10.29
2023-11-15T05:33:33.991Z,10.28
2023-11-15T05:36:01.575Z,10.21
2023-11-15T05:38:29.167Z,10.25
2023-11-15T05:40:58.296Z,10.24
2023-11-15T05:43:25.812Z,10.16
2023-11-15T05:45:53.510Z,10.08
2023-11-15T05:48:21.038Z,9.97
2023-11-15T05:50:49.920Z,9.96
2023-11-15T05:53:17.827Z,9.94
2023-11-15T05:55:45.446Z,10.02
2023-11-15T05:58:12.974Z,10.07
2023-11-15T06:00:42.860Z,10.17
2023-11-15T06:03:11.484Z,10.24
2023-11-15T06:05:39.560Z,10.28
2023-11-15T06:08:08.460Z,10.31
2023-11-15T06:10:35.990Z,10.25
2023-11-15T06:13:03.542Z,10.41
2023-11-15T06:15:31.099Z,10.37
2023-11-15T06:17:58.905Z,10.34
2023-11-15T06:20:26.428Z,10.23
2023-11-15T06:22:53.911Z,10.28
2023-11-15T06:25:23.094Z,10.28
2023-11-15T06:27:50.653Z,10.33
2023-11-15T06:30:21.282Z,10.30
2023-11-15T06:32:49.485Z,10.29
2023-11-15T06:35:20.157Z,10.27
2023-11-15T06:37:48.311Z,10.32
2023-11-15T06:40:16.100Z,10.28
2023-11-15T06:42:45.646Z,10.28
2023-11-15T06:45:14.118Z,10.27
2023-11-15T06:47:43.654Z,10.21
2023-11-15T06:50:12.138Z,10.22
2023-11-15T06:52:41.293Z,10.20
2023-11-15T06:55:11.917Z,10.18
2023-11-15T06:57:42.363Z,10.13
2023-11-15T07:00:13.996Z,10.08
2023-11-15T07:02:43.293Z,10.13
2023-11-15T07:05:12.381Z,10.10
2023-11-15T07:07:40.927Z,10.17
2023-11-15T07:10:09.720Z,10.16
2023-11-15T07:12:37.562Z,10.19
2023-11-15T07:15:08.873Z,10.22
2023-11-15T07:17:39.116Z,10.27
2023-11-15T07:20:11.238Z,10.34
2023-11-15T07:22:39.774Z,10.35
2023-11-15T07:25:08.480Z,10.38
2023-11-15T07:27:36.942Z,10.40
2023-11-15T07:30:05.210Z,10.41
2023-11-15T07:32:35.493Z,10.36
2023-11-15T07:35:05.949Z,10.28
2023-11-15T07:37:33.453Z,10.19
2023-11-15T07:40:05.473Z,10.16
2023-11-15T07:42:35.358Z,10.14
2023-11-15T07:45:03.599Z,10.10
2023-11-15T07:47:35.746Z,10.02
2023-11-15T07:50:06.100Z,10.03
2023-11-15T07:52:34.028Z,10.03
2023-11-15T07:55:02.449Z,10.01
2023-11-15T07:57:30.114Z,9.96
2023-11-15T07:59:57.877Z,9.98
2023-11-15T08:02:25.483Z,9.96
2023-11-15T08:04:53.032Z,9.96
2023-11-15T08:07:22.874Z,9.93
2023-11-15T08:09:50.427Z,9.88
2023-11-15T08:12:19.234Z,9.94
2023-11-15T08:14:46.895Z,10.02
2023-11-15T08:17:15.692Z,10.10
2023-11-15T08:19:47.351Z,10.22
2023-11-15T08:22:17.430Z,10.26
2023-11-15T08:24:48.223Z,10.15
2023-11-15T08:27:15.994Z,10.18
2023-11-15T08:29:43.855Z,10.34
2023-11-15T08:32:12.861Z,10.23
2023-11-15T08:34:40.460Z,10.20
2023-11-15T08:37:09.288Z,10.19
2023-11-15T08:39:36.856Z,10.25
2023-11-15T08:42:07.462Z,10.24
2023-11-15T08:44:35.237Z,10.22
2023-11-15T08:47:03.094Z,10.20
2023-11-15T08:49:31.865Z,10.18
2023-11-15T08:51:59.383Z,10.30
2023-11-15T08:54:26.890Z,10.32
2023-11-15T08:56:54.694Z,10.31
2023-11-15T08:59:25.334Z,10.42
2023-11-15T09:01:52.992Z,10.49
2023-11-15T09:04:20.552Z,10.48
2023-11-15T09:06:49.805Z,10.50
2023-11-15T09:09:18.550Z,10.47
2023-11-15T09:11:46.801Z,10.41
2023-11-15T09:14:17.704Z,10.31
2023-11-15T09:16:46.754Z,10.28
2023-11-15T09:19:17.820Z,10.21
2023-11-15T09:21:49.348Z,10.20
2023-11-15T09:24:22.858Z,10.20
2023-11-15T09:26:51.277Z,10.20
2023-11-15T09:29:20.332Z,10.27
2023-11-15T09:31:52.077Z,10.36
2023-11-15T09:34:22.351Z,10.41
2023-11-15T09:36:50.943Z,10.37
2023-11-15T09:39:18.708Z,10.36
2023-11-15T09:41:54.946Z,10.51
2023-11-15T09:44:24.507Z,10.63
2023-11-15T09:46:59.888Z,10.49
2023-11-15T09:49:28.390Z,10.51
2023-11-15T09:51:57.975Z,10.43
2023-11-15T09:54:27.412Z,10.36
2023-11-15T09:56:55.979Z,10.37
2023-11-15T09:59:24.197Z,10.34
2023-11-15T10:01:51.867Z,10.21
2023-11-15T10:04:28.742Z,10.11
2023-11-15T10:07:05.198Z,10.21
2023-11-15T10:09:36.230Z,10.19
2023-11-15T10:12:04.893Z,10.19
2023-11-15T10:14:34.147Z,10.29
2023-11-15T10:17:04.398Z,10.50
2023-11-15T10:19:35.190Z,10.72
2023-11-15T10:22:05.728Z,10.86
2023-11-15T10:24:36.047Z,10.92
2023-11-15T10:27:09.720Z,11.22
2023-11-15T10:29:39.449Z,11.30
2023-11-15T10:32:07.686Z,11.42
2023-11-15T10:34:50.047Z,11.46
2023-11-15T10:37:19.067Z,11.36
2023-11-15T10:39:47.723Z,11.44
2023-11-15T10:42:19.653Z,11.68
2023-11-15T10:44:48.609Z,11.49
2023-11-15T10:47:20.592Z,11.35
2023-11-15T10:49:55.508Z,11.20
2023-11-15T10:52:23.618Z,11.18
2023-11-15T10:54:57.102Z,10.89
2023-11-15T10:57:29.246Z,10.82
2023-11-15T11:00:07.987Z,10.91
2023-11-15T11:02:39.382Z,10.85
2023-11-15T11:05:15.072Z,10.93
2023-11-15T11:07:50.652Z,10.99
2023-11-15T11:10:26.633Z,11.02
2023-11-15T11:12:57.346Z,10.87
2023-11-15T11:15:28.343Z,10.68
2023-11-15T11:18:06.947Z,10.55
2023-11-15T11:20:37.767Z,10.45
2023-11-15T11:23:09.906Z,10.38
2023-11-15T11:25:40.126Z,10.43
2023-11-15T11:28:08.800Z,10.49
2023-11-15T11:30:36.930Z,10.54
2023-11-15T11:33:11.847Z,10.59
2023-11-15T11:35:47.078Z,10.65
2023-11-15T11:38:41.544Z,10.63
2023-11-15T11:41:09.922Z,10.93
2023-11-15T11:43:38.440Z,11.05
2023-11-15T11:46:16.903Z,11.07
2023-11-15T11:48:44.812Z,11.04
2023-11-15T11:51:15.552Z,10.79
2023-11-15T11:53:46.230Z,10.52
2023-11-15T11:56:14.934Z,10.53
2023-11-15T11:58:44.847Z,10.53
2023-11-15T12:01:13.238Z,10.66
2023-11-15T12:03:48.598Z,10.69
2023-11-15T12:06:18.993Z,10.76
2023-11-15T12:08:50.088Z,10.73
2023-11-15T12:11:23.049Z,10.89
2023-11-15T12:13:52.367Z,11.11
2023-11-15T12:16:22.752Z,10.94
2023-11-15T12:19:05.298Z,10.89
2023-11-15T12:21:37.435Z,10.79
2023-11-15T12:24:11.176Z,10.76
2023-11-15T12:26:47.349Z,10.66
2023-11-15T12:29:23.195Z,10.48
2023-11-15T12:31:52.514Z,10.41
2023-11-15T12:34:25.228Z,10.30
2023-11-15T12:36:54.588Z,10.25
2023-11-15T12:39:23.899Z,10.15
2023-11-15T12:41:53.475Z,10.05
2023-11-15T12:44:22.711Z,10.05
2023-11-15T12:46:59.125Z,9.90
2023-11-15T12:49:28.449Z,9.89
2023-11-15T12:51:58.623Z,9.91
2023-11-15T12:54:26.145Z,9.80
2023-11-15T12:57:15.016Z,9.83
2023-11-15T12:59:45.675Z,9.77
2023-11-15T13:02:18.836Z,9.86
2023-11-15T13:04:47.721Z,9.82
2023-11-15T13:07:16.790Z,9.80
2023-11-15T13:09:45.316Z,9.70
2023-11-15T13:12:23.421Z,9.70
2023-11-15T13:14:53.524Z,9.63
2023-11-15T13:17:21.194Z,9.60
2023-11-15T13:19:49.964Z,9.44
2023-11-15T13:22:18.807Z,9.46
2023-11-15T13:24:50.553Z,9.39
2023-11-15T13:27:21.273Z,9.39
2023-11-15T13:29:49.391Z,9.33
2023-11-15T13:32:16.937Z,9.29
2023-11-15T13:34:46.066Z,9.31
2023-11-15T13:37:14.264Z,9.31
2023-11-15T13:39:43.200Z,9.30
2023-11-15T13:42:10.911Z,9.30
2023-11-15T13:44:39.559Z,9.32
2023-11-15T13:47:08.552Z,9.33
2023-11-15T13:49:36.226Z,9.37
2023-11-15T13:52:04.222Z,9.40
2023-11-15T13:54:31.850Z,9.44
2023-11-15T13:57:00.974Z,9.59
2023-11-15T13:59:32.971Z,9.61
2023-11-15T14:02:00.515Z,9.77
2023-11-15T14:04:28.050Z,10.18
2023-11-15T14:06:56.781Z,10.64
2023-11-15T14:09:26.895Z,10.74
2023-11-15T14:11:54.884Z,10.84
2023-11-15T14:14:25.753Z,10.64
2023-11-15T14:16:54.721Z,10.64
2023-11-15T14:19:25.454Z,10.69
2023-11-15T14:21:53.430Z,10.76
2023-11-15T14:24:21.858Z,10.64
2023-11-15T14:26:49.809Z,10.59
2023-11-15T14:29:17.641Z,10.63
2023-11-15T14:31:46.605Z,10.64
2023-11-15T14:34:14.220Z,10.48
2023-11-15T14:36:46.127Z,10.24
2023-11-15T14:39:13.933Z,10.52
2023-11-15T14:41:42.820Z,10.40
2023-11-15T14:44:10.378Z,10.16
2023-11-15T14:46:38.230Z,10.12
2023-11-15T14:49:07.230Z,10.11
2023-11-15T14:51:35.059Z,10.15
2023-11-15T14:54:03.076Z,10.33
2023-11-15T14:56:31.982Z,10.36
2023-11-15T14:59:00.489Z,10.42
2023-11-15T15:01:28.481Z,10.44
2023-11-15T15:03:56.744Z,10.40
2023-11-15T15:06:25.838Z,10.56
2023-11-15T15:08:53.424Z,10.51
2023-11-15T15:11:20.986Z,10.48
2023-11-15T15:13:48.527Z,10.48
2023-11-15T15:16:17.997Z,10.46
2023-11-15T15:18:45.795Z,10.42
2023-11-15T15:21:15.838Z,10.32
2023-11-15T15:23:44.832Z,10.35
2023-11-15T15:26:13.727Z,10.32
2023-11-15T15:28:41.248Z,10.27
2023-11-15T15:31:08.718Z,10.19
2023-11-15T15:33:36.405Z,10.21
2023-11-15T15:36:04.411Z,10.15
2023-11-15T15:38:31.907Z,10.12
2023-11-15T15:41:03.363Z,9.95
2023-11-15T15:43:31.670Z,9.87
2023-11-15T15:45:59.271Z,9.78
2023-11-15T15:48:26.836Z,9.80
2023-11-15T15:50:54.752Z,9.90
2023-11-15T15:53:22.593Z,9.90
2023-11-15T15:55:50.232Z,9.91
2023-11-15T15:58:19.118Z,9.91
2023-11-15T16:00:48.255Z,9.99
2023-11-15T16:03:15.850Z,9.95
2023-11-15T16:05:46.105Z,9.96
2023-11-15T16:08:13.707Z,10.13
2023-11-15T16:10:41.295Z,10.12
2023-11-15T16:13:08.755Z,10.08
2023-11-15T16:15:38.742Z,10.13
2023-11-15T16:18:06.911Z,10.31
2023-11-15T16:20:34.506Z,10.35
2023-11-15T16:23:02.113Z,10.43
2023-11-15T16:25:29.963Z,10.47
2023-11-15T16:27:57.480Z,10.65
2023-11-15T16:30:26.940Z,10.60
2023-11-15T16:32:56.630Z,10.58
2023-11-15T16:35:24.694Z,10.48
2023-11-15T16:37:54.415Z,10.44
2023-11-15T16:40:22.173Z,10.38
2023-11-15T16:42:49.861Z,10.29
2023-11-15T16:45:18.560Z,10.29
2023-11-15T16:47:46.171Z,10.25
2023-11-15T16:50:15.288Z,10.26
2023-11-15T16:52:42.994Z,10.22
2023-11-15T16:55:13.475Z,10.07
2023-11-15T16:57:41.137Z,9.96
2023-11-15T17:00:10.311Z,9.89
2023-11-15T17:02:40.115Z,9.83
2023-11-15T17:05:08.336Z,9.86
2023-11-15T17:07:37.135Z,9.79
2023-11-15T17:10:05.774Z,9.63
2023-11-15T17:12:33.534Z,9.55
2023-11-15T17:15:01.189Z,9.63
2023-11-15T17:17:29.684Z,9.75
2023-11-15T17:19:58.437Z,9.82
2023-11-15T17:22:27.903Z,9.85
2023-11-15T17:24:56.738Z,9.95
2023-11-15T17:27:25.265Z,9.94
2023-11-15T17:29:53.295Z,10.07
2023-11-15T17:32:20.831Z,10.12
2023-11-15T17:34:48.565Z,10.14
2023-11-15T17:37:16.579Z,10.15
2023-11-15T17:39:44.805Z,10.14
2023-11-15T17:42:13.661Z,10.17
2023-11-15T17:44:41.405Z,10.16
2023-11-15T17:47:08.871Z,10.23
2023-11-15T17:49:36.363Z,10.24
2023-11-15T17:52:10.835Z,10.31
2023-11-15T17:54:38.633Z,10.27
2023-11-15T17:57:06.578Z,10.13
2023-11-15T17:59:35.690Z,10.01
2023-11-15T18:02:05.207Z,9.91
2023-11-15T18:04:33.220Z,9.84
2023-11-15T18:07:01.002Z,9.77
2023-11-15T18:09:28.562Z,9.77
2023-11-15T18:11:56.820Z,9.74
2023-11-15T18:14:24.680Z,9.76
2023-11-15T18:16:53.936Z,9.67
2023-11-15T18:19:22.375Z,9.67
2023-11-15T18:21:52.042Z,9.60
2023-11-15T18:24:20.061Z,9.58
2023-11-15T18:26:47.699Z,9.49
2023-11-15T18:29:15.301Z,9.40
2023-11-15T18:31:43.178Z,9.36
2023-11-15T18:34:12.591Z,9.45
2023-11-15T18:36:44.193Z,9.53
2023-11-15T18:39:15.554Z,9.56
2023-11-15T18:41:44.056Z,9.48
2023-11-15T18:44:12.605Z,9.35
2023-11-15T18:46:40.507Z,9.25
2023-11-15T18:49:07.992Z,9.24
2023-11-15T18:51:37.114Z,9.32
2023-11-15T18:54:05.026Z,9.33
2023-11-15T18:56:32.788Z,9.42
2023-11-15T18:59:01.482Z,9.47
2023-11-15T19:01:33.144Z,9.44
2023-11-15T19:04:03.179Z,9.44
2023-11-15T19:06:33.303Z,9.50
2023-11-15T19:09:02.755Z,9.62
2023-11-15T19:11:32.131Z,9.60
2023-11-15T19:13:59.836Z,9.66
2023-11-15T19:16:28.782Z,9.74
2023-11-15T19:18:56.757Z,9.75
2023-11-15T19:21:24.986Z,9.78
2023-11-15T19:23:53.309Z,9.70
2023-11-15T19:26:25.168Z,9.74
2023-11-15T19:28:52.983Z,9.84
2023-11-15T19:31:20.523Z,9.87
2023-11-15T19:33:49.575Z,9.90
2023-11-15T19:36:17.199Z,9.86
2023-11-15T19:38:44.724Z,9.84
2023-11-15T19:41:19.376Z,9.86
2023-11-15T19:43:48.458Z,9.93
2023-11-15T19:46:20.105Z,9.84
2023-11-15T19:48:48.772Z,9.74
2023-11-15T19:51:23.599Z,9.66
2023-11-15T19:54:06.641Z,9.54
2023-11-15T19:56:34.599Z,9.46
2023-11-15T19:59:04.728Z,9.52
2023-11-15T20:01:32.371Z,9.45
2023-11-15T20:04:01.864Z,9.48
2023-11-15T20:06:29.729Z,9.50
2023-11-15T20:08:57.510Z,9.44
2023-11-15T20:11:25.578Z,9.45
2023-11-15T20:13:55.654Z,9.45
2023-11-15T20:16:25.548Z,9.43
2023-11-15T20:18:53.334Z,9.41
2023-11-15T20:21:20.982Z,9.48
2023-11-15T20:23:48.687Z,9.62
2023-11-15T20:26:16.427Z,9.67
2023-11-15T20:28:44.899Z,9.70
2023-11-15T20:31:14.198Z,9.66
2023-11-15T20:33:43.414Z,9.74
2023-11-15T20:36:11.942Z,9.70
2023-11-15T20:38:39.568Z,9.64
2023-11-15T20:41:08.368Z,9.67
2023-11-15T20:43:37.017Z,9.74
2023-11-15T20:46:17.168Z,9.83
2023-11-15T20:48:48.170Z,9.84
2023-11-15T20:51:15.947Z,9.84
2023-11-15T20:53:44.679Z,9.78
2023-11-15T20:56:12.188Z,9.74
2023-11-15T20:58:41.287Z,9.70
2023-11-15T21:01:08.875Z,9.71
2023-11-15T21:03:36.556Z,9.67
2023-11-15T21:06:06.318Z,9.72
2023-11-15T21:08:35.923Z,9.73
2023-11-15T21:11:06.096Z,9.78
2023-11-15T21:13:35.902Z,9.85
2023-11-15T21:16:07.461Z,9.84
2023-11-15T21:18:35.231Z,9.83
2023-11-15T21:21:07.281Z,9.84
2023-11-15T21:23:36.163Z,9.86
2023-11-15T21:26:04.550Z,9.83
2023-11-15T21:28:32.168Z,9.82
2023-11-15T21:30:59.658Z,9.79
2023-11-15T21:33:27.322Z,9.86
2023-11-15T21:35:55.209Z,9.84
2023-11-15T21:38:24.097Z,9.84
2023-11-15T21:40:51.981Z,9.84
2023-11-15T21:43:19.791Z,9.86
2023-11-15T21:45:48.732Z,9.85
2023-11-15T21:48:16.555Z,9.86
2023-11-15T21:50:45.472Z,9.88
2023-11-15T21:53:14.348Z,9.75
2023-11-15T21:55:43.266Z,9.67
2023-11-15T21:58:13.154Z,9.65
2023-11-15T22:00:40.720Z,9.63
2023-11-15T22:03:08.285Z,9.47
2023-11-15T22:05:36.446Z,9.49
2023-11-15T22:08:04.406Z,9.47
2023-11-15T22:10:32.227Z,9.41
2023-11-15T22:13:01.164Z,9.41
2023-11-15T22:15:29.266Z,9.35
2023-11-15T22:17:57.454Z,9.33
2023-11-15T22:20:25.120Z,9.28
2023-11-15T22:22:52.585Z,9.27
2023-11-15T22:25:20.446Z,9.23
2023-11-15T22:27:48.062Z,9.26
2023-11-15T22:30:17.011Z,9.30
2023-11-15T22:32:44.821Z,9.29
2023-11-15T22:35:12.739Z,9.29
2023-11-15T22:37:40.346Z,9.29
2023-11-15T22:40:08.736Z,9.26
2023-11-15T22:42:36.430Z,9.20
2023-11-15T22:45:05.536Z,9.16
2023-11-15T22:47:35.086Z,9.15
2023-11-15T22:50:05.768Z,9.15
2023-11-15T22:52:34.497Z,9.13
2023-11-15T22:55:02.061Z,9.11
2023-11-15T22:57:29.587Z,9.08
2023-11-15T22:59:57.149Z,9.16
2023-11-15T23:02:24.726Z,9.15
2023-11-15T23:04:56.165Z,9.12
2023-11-15T23:07:23.947Z,9.14
2023-11-15T23:09:51.854Z,9.16
2023-11-15T23:12:19.789Z,9.13
2023-11-15T23:14:48.929Z,9.11
2023-11-15T23:17:16.641Z,9.15
2023-11-15T23:19:44.252Z,9.12
2023-11-15T23:22:13.067Z,9.13
2023-11-15T23:24:40.811Z,9.14
2023-11-15T23:27:10.899Z,9.13
2023-11-15T23:29:38.615Z,9.15
2023-11-15T23:32:06.803Z,9.19
2023-11-15T23:34:34.298Z,9.22
2023-11-15T23:37:03.409Z,9.19
2023-11-15T23:39:33.411Z,9.22
2023-11-15T23:42:01.008Z,9.24
2023-11-15T23:44:28.564Z,9.23
2023-11-15T23:46:58.915Z,9.24
2023-11-15T23:49:26.894Z,9.26
2023-11-15T23:51:54.395Z,9.30
2023-11-15T23:54:22.486Z,9.30
2023-11-15T23:56:51.371Z,9.36
2023-11-15T23:59:21.978Z,9.40
